createdAt,value
2019-02-16T00:01:54.079Z,7.93
2019-02-16T00:04:25.231Z,4.50
2019-02-16T00:06:56.334Z,6.50
2019-02-16T00:09:27.740Z,5.40
2019-02-16T00:11:58.952Z,4.40
2019-02-16T00:14:30.003Z,9.03
2019-02-16T00:17:01.620Z,4.25
2019-02-16T00:19:32.784Z,7.17
2019-02-16T00:22:03.855Z,3.80
2019-02-16T00:24:35.150Z,4.57
2019-02-16T00:27:05.968Z,5.10
2019-02-16T00:29:37.083Z,4.77
2019-02-16T00:32:08.837Z,5.63
2019-02-16T00:34:39.891Z,5.33
2019-02-16T00:37:10.921Z,2.67
2019-02-16T00:39:41.864Z,8.73
2019-02-16T00:42:12.922Z,3.33
2019-02-16T00:44:44.342Z,6.30
2019-02-16T00:47:15.403Z,5.43
2019-02-16T00:49:46.230Z,7.47
2019-02-16T00:52:17.314Z,7.00
2019-02-16T00:54:48.195Z,5.47
2019-02-16T00:57:19.262Z,5.23
2019-02-16T00:59:50.331Z,6.77
2019-02-16T01:02:21.249Z,6.13
2019-02-16T01:04:52.068Z,6.53
2019-02-16T01:07:22.951Z,7.03
2019-02-16T01:09:54.054Z,5.57
2019-02-16T01:12:24.888Z,7.40
2019-02-16T01:14:57.250Z,5.83
2019-02-16T01:17:28.113Z,4.70
2019-02-16T01:19:59.202Z,7.50
2019-02-16T01:22:30.455Z,9.27
2019-02-16T01:25:01.846Z,7.85
2019-02-16T01:27:32.984Z,9.80
2019-02-16T01:30:05.359Z,6.83
2019-02-16T01:32:36.137Z,7.70
2019-02-16T01:35:07.617Z,8.33
2019-02-16T01:37:38.409Z,6.45
2019-02-16T01:40:10.588Z,6.85
2019-02-16T01:42:41.836Z,7.30
2019-02-16T01:45:12.721Z,6.47
2019-02-16T01:47:43.884Z,5.55
2019-02-16T01:50:15.267Z,6.05
2019-02-16T01:52:46.656Z,5.87
2019-02-16T01:55:17.543Z,10.30
2019-02-16T01:57:48.508Z,8.47
2019-02-16T02:00:19.307Z,5.77
2019-02-16T02:02:51.095Z,6.80
2019-02-16T02:05:22.099Z,7.33
2019-02-16T02:07:53.257Z,5.03
2019-02-16T02:10:24.162Z,6.03
2019-02-16T02:12:54.988Z,6.30
2019-02-16T02:15:26.096Z,7.93
2019-02-16T02:17:56.944Z,7.43
2019-02-16T02:20:27.840Z,6.83
2019-02-16T02:22:58.982Z,6.03
2019-02-16T02:25:30.065Z,6.40
2019-02-16T02:28:01.639Z,10.72
2019-02-16T02:30:33.005Z,6.77
2019-02-16T02:33:04.310Z,10.40
2019-02-16T02:35:35.927Z,6.43
2019-02-16T02:38:07.401Z,7.83
2019-02-16T02:40:38.470Z,4.97
2019-02-16T02:43:09.835Z,5.13
2019-02-16T02:45:40.947Z,7.22
2019-02-16T02:48:13.549Z,8.10
2019-02-16T02:50:44.393Z,7.13
2019-02-16T02:53:15.253Z,4.77
2019-02-16T02:55:46.182Z,7.17
2019-02-16T02:58:29.156Z,6.37
2019-02-16T03:01:00.175Z,9.57
2019-02-16T03:03:32.055Z,6.50
2019-02-16T03:06:03.285Z,5.87
2019-02-16T03:08:34.405Z,4.70
2019-02-16T03:11:05.553Z,4.17
2019-02-16T03:13:36.611Z,5.63
2019-02-16T03:16:08.390Z,7.83
2019-02-16T03:18:39.252Z,4.17
2019-02-16T03:21:10.819Z,6.50
2019-02-16T03:23:41.696Z,7.23
2019-02-16T03:26:50.223Z,5.37
2019-02-16T03:29:46.110Z,7.33
2019-02-16T03:32:43.269Z,5.73
2019-02-16T03:36:05.150Z,7.87
2019-02-16T03:38:54.788Z,6.83
2019-02-16T03:41:26.123Z,5.00
2019-02-16T03:43:57.181Z,6.37
2019-02-16T03:46:28.026Z,9.50
2019-02-16T03:48:58.846Z,8.97
2019-02-16T03:51:29.674Z,7.30
2019-02-16T03:54:00.747Z,6.13
2019-02-16T03:56:32.180Z,6.37
2019-02-16T03:59:03.047Z,8.97
2019-02-16T04:01:34.091Z,9.93
2019-02-16T04:04:04.908Z,10.87
2019-02-16T04:06:36.109Z,9.33
2019-02-16T04:09:07.027Z,8.07
2019-02-16T04:11:38.147Z,7.60
2019-02-16T04:14:08.955Z,8.33
2019-02-16T04:16:40.086Z,7.03
2019-02-16T04:19:10.913Z,8.00
2019-02-16T04:21:42.174Z,8.33
2019-02-16T04:24:12.993Z,7.07
2019-02-16T04:26:43.832Z,7.60
2019-02-16T04:29:19.223Z,9.23
2019-02-16T04:31:50.351Z,6.43
2019-02-16T04:34:21.403Z,9.77
2019-02-16T04:36:52.515Z,7.10
2019-02-16T04:39:25.842Z,11.13
2019-02-16T04:41:57.359Z,6.97
2019-02-16T04:44:28.863Z,9.00
2019-02-16T04:46:59.925Z,9.53
2019-02-16T04:49:30.734Z,7.03
2019-02-16T04:52:02.281Z,6.10
2019-02-16T04:54:33.116Z,7.00
2019-02-16T04:57:03.939Z,7.87
2019-02-16T04:59:34.773Z,7.23
2019-02-16T05:02:06.118Z,9.97
2019-02-16T05:04:37.239Z,8.78
2019-02-16T05:07:08.283Z,8.70
2019-02-16T05:09:39.449Z,8.73
2019-02-16T05:12:11.600Z,6.65
2019-02-16T05:14:42.394Z,9.10
2019-02-16T05:17:13.545Z,6.80
2019-02-16T05:19:44.342Z,6.53
2019-02-16T05:22:15.291Z,6.70
2019-02-16T05:24:46.359Z,7.60
2019-02-16T05:27:17.436Z,6.03
2019-02-16T05:29:48.261Z,6.40
2019-02-16T05:32:19.068Z,4.90
2019-02-16T05:34:49.854Z,5.23
2019-02-16T05:37:20.663Z,5.40
2019-02-16T05:39:51.896Z,9.07
2019-02-16T05:42:23.192Z,4.37
2019-02-16T05:44:54.711Z,6.53
2019-02-16T05:47:25.757Z,6.10
2019-02-16T05:49:56.563Z,8.30
2019-02-16T05:52:27.613Z,7.27
2019-02-16T05:54:58.685Z,4.40
2019-02-16T05:57:29.591Z,6.03
2019-02-16T06:00:00.620Z,5.20
2019-02-16T06:02:32.507Z,5.25
2019-02-16T06:05:03.352Z,9.93
2019-02-16T06:07:34.183Z,4.87
2019-02-16T06:10:05.237Z,3.00
2019-02-16T06:12:36.156Z,2.13
2019-02-16T06:15:07.991Z,2.73
2019-02-16T06:17:38.796Z,3.57
2019-02-16T06:20:10.085Z,4.17
2019-02-16T06:22:40.901Z,2.40
2019-02-16T06:25:12.019Z,2.77
2019-02-16T06:27:43.398Z,7.40
2019-02-16T06:30:14.373Z,6.77
2019-02-16T06:32:45.202Z,4.97
2019-02-16T06:35:29.936Z,5.60
2019-02-16T06:38:01.123Z,6.00
2019-02-16T06:40:32.316Z,8.55
2019-02-16T06:43:03.466Z,6.73
2019-02-16T06:45:34.296Z,8.93
2019-02-16T06:48:05.671Z,7.10
2019-02-16T06:50:37.415Z,7.43
2019-02-16T06:53:13.250Z,7.13
2019-02-16T06:55:48.182Z,3.60
2019-02-16T06:58:18.984Z,7.23
2019-02-16T07:00:49.804Z,5.03
2019-02-16T07:03:20.711Z,5.83
2019-02-16T07:05:51.588Z,5.90
2019-02-16T07:08:22.681Z,4.93
2019-02-16T07:10:54.493Z,8.53
2019-02-16T07:13:25.796Z,4.40
2019-02-16T07:16:15.124Z,3.57
2019-02-16T07:18:59.990Z,3.73
2019-02-16T07:21:30.841Z,2.53
2019-02-16T07:24:03.999Z,5.90
2019-02-16T07:26:35.453Z,4.10
2019-02-16T07:29:06.401Z,5.60
2019-02-16T07:31:37.629Z,1.70
2019-02-16T07:34:09.087Z,3.20
2019-02-16T07:36:40.007Z,5.30
2019-02-16T07:39:11.174Z,3.03
2019-02-16T07:41:42.107Z,2.87
2019-02-16T07:44:30.642Z,3.70
2019-02-16T07:47:20.137Z,2.80
2019-02-16T07:50:01.081Z,3.77
2019-02-16T07:52:51.894Z,2.95
2019-02-16T07:55:28.892Z,4.67
2019-02-16T07:58:06.271Z,4.53
2019-02-16T08:01:08.348Z,3.20
2019-02-16T08:03:50.394Z,2.90
2019-02-16T08:06:30.772Z,3.80
2019-02-16T08:09:09.692Z,2.85
2019-02-16T08:11:49.246Z,2.20
2019-02-16T08:14:26.420Z,3.60
2019-02-16T08:17:08.234Z,3.33
2019-02-16T08:19:58.342Z,5.22
2019-02-16T08:22:44.654Z,3.97
2019-02-16T08:25:33.216Z,1.53
2019-02-16T08:28:15.367Z,3.13
2019-02-16T08:31:07.123Z,4.30
2019-02-16T08:34:03.235Z,3.60
2019-02-16T08:37:05.277Z,2.53
2019-02-16T08:39:46.340Z,2.07
2019-02-16T08:42:26.854Z,3.20
2019-02-16T08:45:07.580Z,5.13
2019-02-16T08:47:57.438Z,1.13
2019-02-16T08:50:44.991Z,3.37
2019-02-16T08:53:26.398Z,2.17
2019-02-16T08:56:19.162Z,1.87
2019-02-16T08:59:04.652Z,3.13
2019-02-16T09:02:06.686Z,3.90
2019-02-16T09:05:02.224Z,2.93
2019-02-16T09:08:07.960Z,4.23
2019-02-16T09:10:56.362Z,2.20
2019-02-16T09:13:33.761Z,2.87
2019-02-16T09:16:12.241Z,4.03
2019-02-16T09:18:54.473Z,3.50
2019-02-16T09:21:31.797Z,2.87
2019-02-16T09:24:24.910Z,1.27
2019-02-16T09:27:19.762Z,3.70
2019-02-16T09:30:13.004Z,3.27
2019-02-16T09:32:55.618Z,2.60
2019-02-16T09:35:38.801Z,4.30
2019-02-16T09:38:25.566Z,2.93
2019-02-16T09:41:21.498Z,3.40
2019-02-16T09:44:03.678Z,2.47
2019-02-16T09:46:50.971Z,2.83
2019-02-16T09:49:42.548Z,5.90
2019-02-16T09:52:33.343Z,4.97
2019-02-16T09:55:10.298Z,3.13
2019-02-16T09:58:00.300Z,3.00
2019-02-16T10:00:53.314Z,1.40
2019-02-16T10:03:43.208Z,3.50
2019-02-16T10:06:24.694Z,1.27
2019-02-16T10:09:08.677Z,1.60
2019-02-16T10:11:43.729Z,2.15
2019-02-16T10:14:20.172Z,2.37
2019-02-16T10:17:09.866Z,2.17
2019-02-16T10:20:11.426Z,3.60
2019-02-16T10:22:51.571Z,3.53
2019-02-16T10:25:51.194Z,4.53
2019-02-16T10:28:45.031Z,4.40
2019-02-16T10:31:30.227Z,6.30
2019-02-16T10:34:19.240Z,4.27
2019-02-16T10:37:04.158Z,2.63
2019-02-16T10:39:49.003Z,3.47
2019-02-16T10:42:41.955Z,4.27
2019-02-16T10:45:37.178Z,2.00
2019-02-16T10:48:23.156Z,1.43
2019-02-16T10:50:59.486Z,2.30
2019-02-16T10:53:35.487Z,3.70
2019-02-16T10:56:18.811Z,4.33
2019-02-16T10:59:11.736Z,2.30
2019-02-16T11:02:17.085Z,3.27
2019-02-16T11:05:06.926Z,3.17
2019-02-16T11:07:58.667Z,2.53
2019-02-16T11:10:49.005Z,4.37
2019-02-16T11:13:40.641Z,2.90
2019-02-16T11:16:44.044Z,1.67
2019-02-16T11:19:35.191Z,2.87
2019-02-16T11:22:17.225Z,4.57
2019-02-16T11:25:17.967Z,4.43
2019-02-16T11:28:04.596Z,1.93
2019-02-16T11:30:40.234Z,3.50
2019-02-16T11:33:18.025Z,2.83
2019-02-16T11:36:03.746Z,5.80
2019-02-16T11:38:46.682Z,3.52
2019-02-16T11:41:28.730Z,3.77
2019-02-16T11:44:06.528Z,3.97
2019-02-16T11:47:10.135Z,4.97
2019-02-16T11:49:56.020Z,6.80
2019-02-16T11:52:50.761Z,4.00
2019-02-16T11:55:30.868Z,4.67
2019-02-16T11:58:31.640Z,3.10
2019-02-16T12:01:15.038Z,4.33
2019-02-16T12:04:09.599Z,5.73
2019-02-16T12:06:57.179Z,3.27
2019-02-16T12:09:52.684Z,2.60
2019-02-16T12:12:41.977Z,4.60
2019-02-16T12:15:33.669Z,2.55
2019-02-16T12:18:34.416Z,6.50
2019-02-16T12:21:21.724Z,3.30
2019-02-16T12:23:59.414Z,3.70
2019-02-16T12:26:47.160Z,3.60
2019-02-16T12:29:43.930Z,4.23
2019-02-16T12:32:32.963Z,7.03
2019-02-16T12:35:20.803Z,8.60
2019-02-16T12:38:05.582Z,3.93
2019-02-16T12:40:55.196Z,4.40
2019-02-16T12:43:43.195Z,6.10
2019-02-16T12:46:21.737Z,5.77
2019-02-16T12:49:08.612Z,3.95
2019-02-16T12:51:50.289Z,3.20
2019-02-16T12:54:38.125Z,3.90
2019-02-16T12:57:13.616Z,4.00
2019-02-16T13:00:01.611Z,5.93
2019-02-16T13:02:49.046Z,4.70
2019-02-16T13:05:40.395Z,5.47
2019-02-16T13:08:21.787Z,5.12
2019-02-16T13:11:09.766Z,5.77
2019-02-16T13:13:47.458Z,7.70
2019-02-16T13:16:36.192Z,5.07
2019-02-16T13:19:31.238Z,3.90
2019-02-16T13:22:11.867Z,5.10
2019-02-16T13:24:59.155Z,5.33
2019-02-16T13:27:46.539Z,3.80
2019-02-16T13:30:34.270Z,4.70
2019-02-16T13:33:21.467Z,3.33
2019-02-16T13:35:58.454Z,6.57
2019-02-16T13:38:35.200Z,4.17
2019-02-16T13:41:20.572Z,6.50
2019-02-16T13:44:18.293Z,7.43
2019-02-16T13:47:03.221Z,5.13
2019-02-16T13:49:54.707Z,7.23
2019-02-16T13:52:31.616Z,6.13
2019-02-16T13:55:19.000Z,7.20
2019-02-16T13:58:10.795Z,5.00
2019-02-16T14:01:06.368Z,5.63
2019-02-16T14:04:04.296Z,7.67
2019-02-16T14:06:40.416Z,5.73
2019-02-16T14:09:25.851Z,4.07
2019-02-16T14:12:17.487Z,5.65
2019-02-16T14:14:54.403Z,12.43
2019-02-16T14:17:33.414Z,6.10
2019-02-16T14:20:03.166Z,10.30
2019-02-16T14:22:38.314Z,9.83
2019-02-16T14:25:12.735Z,6.83
2019-02-16T14:27:42.381Z,12.17
2019-02-16T14:30:12.365Z,7.50
2019-02-16T14:32:42.406Z,5.60
2019-02-16T14:35:12.299Z,6.50
2019-02-16T14:37:51.061Z,5.60
2019-02-16T14:40:21.097Z,5.75
2019-02-16T14:42:51.196Z,5.30
2019-02-16T14:45:20.999Z,8.35
2019-02-16T14:47:50.605Z,4.90
2019-02-16T14:50:21.135Z,4.37
2019-02-16T14:52:50.755Z,3.73
2019-02-16T14:55:20.773Z,5.73
2019-02-16T14:57:51.054Z,4.07
2019-02-16T15:00:20.990Z,5.33
2019-02-16T15:02:50.983Z,8.87
2019-02-16T15:05:20.646Z,4.07
2019-02-16T15:07:50.880Z,5.28
2019-02-16T15:10:21.754Z,5.90
2019-02-16T15:12:51.808Z,8.73
2019-02-16T15:15:21.425Z,4.70
2019-02-16T15:17:51.334Z,7.73
2019-02-16T15:20:20.966Z,5.60
2019-02-16T15:22:50.624Z,6.20
2019-02-16T15:25:20.478Z,6.23
2019-02-16T15:27:51.438Z,4.93
2019-02-16T15:30:21.534Z,9.00
2019-02-16T15:32:51.266Z,7.07
2019-02-16T15:35:21.375Z,6.40
2019-02-16T15:37:51.347Z,6.83
2019-02-16T15:40:21.551Z,8.20
2019-02-16T15:42:51.249Z,8.35
2019-02-16T15:45:21.380Z,7.20
2019-02-16T15:47:52.049Z,5.80
2019-02-16T15:50:22.193Z,8.60
2019-02-16T15:52:52.484Z,51.75
2019-02-16T15:55:22.885Z,46.67
2019-02-16T15:57:52.601Z,12.97
2019-02-16T16:00:27.068Z,8.48
2019-02-16T16:02:56.752Z,5.83
2019-02-16T16:05:26.423Z,11.00
2019-02-16T16:08:15.389Z,7.27
2019-02-16T16:11:00.006Z,7.60
2019-02-16T16:13:41.521Z,6.77
2019-02-16T16:16:21.648Z,8.63
2019-02-16T16:19:08.261Z,8.57
2019-02-16T16:21:46.037Z,11.00
2019-02-16T16:24:36.906Z,15.63
2019-02-16T16:27:25.577Z,10.03
2019-02-16T16:30:03.913Z,9.57
2019-02-16T16:32:46.106Z,9.80
2019-02-16T16:35:22.962Z,11.60
2019-02-16T16:38:02.353Z,17.93
2019-02-16T16:40:52.691Z,7.83
2019-02-16T16:43:36.085Z,10.73
2019-02-16T16:46:22.472Z,8.17
2019-02-16T16:49:16.511Z,8.60
2019-02-16T16:52:17.637Z,9.15
2019-02-16T16:55:01.020Z,12.45
2019-02-16T16:57:52.469Z,9.43
2019-02-16T17:00:40.925Z,30.93
2019-02-16T17:03:32.554Z,13.60
2019-02-16T17:06:08.241Z,11.97
2019-02-16T17:09:03.018Z,7.90
2019-02-16T17:11:55.131Z,10.83
2019-02-16T17:14:52.999Z,10.90
2019-02-16T17:17:38.391Z,10.47
2019-02-16T17:20:27.317Z,10.63
2019-02-16T17:23:14.089Z,10.10
2019-02-16T17:26:01.447Z,8.57
2019-02-16T17:28:50.196Z,7.80
2019-02-16T17:31:29.203Z,11.47
2019-02-16T17:34:15.220Z,11.47
2019-02-16T17:37:03.871Z,8.97
2019-02-16T17:39:58.651Z,9.57
2019-02-16T17:42:35.795Z,6.60
2019-02-16T17:45:23.064Z,11.87
2019-02-16T17:48:14.537Z,6.80
2019-02-16T17:51:09.340Z,6.37
2019-02-16T17:53:54.300Z,7.83
2019-02-16T17:56:33.066Z,7.93
2019-02-16T17:59:10.612Z,9.77
2019-02-16T18:01:58.126Z,11.37
2019-02-16T18:04:41.096Z,10.30
2019-02-16T18:07:23.781Z,11.30
2019-02-16T18:10:01.847Z,9.37
2019-02-16T18:12:48.847Z,10.73
2019-02-16T18:15:36.550Z,13.40
2019-02-16T18:18:26.415Z,8.90
2019-02-16T18:21:02.508Z,11.00
2019-02-16T18:23:39.900Z,9.13
2019-02-16T18:26:28.451Z,8.53
2019-02-16T18:29:15.894Z,10.87
2019-02-16T18:32:15.717Z,12.30
2019-02-16T18:35:05.270Z,7.87
2019-02-16T18:38:00.507Z,9.07
2019-02-16T18:41:08.687Z,10.40
2019-02-16T18:43:53.424Z,9.30
2019-02-16T18:46:41.692Z,7.87
2019-02-16T18:49:34.177Z,12.37
2019-02-16T18:52:16.482Z,13.23
2019-02-16T18:55:10.314Z,6.80
2019-02-16T18:57:39.944Z,16.60
2019-02-16T19:00:17.985Z,16.20
2019-02-16T19:03:06.827Z,7.53
2019-02-16T19:05:47.049Z,9.60
2019-02-16T19:08:41.987Z,11.30
2019-02-16T19:11:28.674Z,7.63
2019-02-16T19:14:26.502Z,11.13
2019-02-16T19:17:13.367Z,9.35
2019-02-16T19:20:10.627Z,11.83
2019-02-16T19:22:58.997Z,11.80
2019-02-16T19:25:59.913Z,11.10
2019-02-16T19:28:48.574Z,12.33
2019-02-16T19:31:27.591Z,13.87
2019-02-16T19:34:35.022Z,8.83
2019-02-16T19:37:29.744Z,14.47
2019-02-16T19:40:09.701Z,16.23
2019-02-16T19:43:03.223Z,12.77
2019-02-16T19:45:51.111Z,15.27
2019-02-16T19:48:31.289Z,15.90
2019-02-16T19:51:08.237Z,15.27
2019-02-16T19:53:45.331Z,16.43
2019-02-16T19:56:22.323Z,12.00
2019-02-16T19:59:02.621Z,13.53
2019-02-16T20:02:09.702Z,13.77
2019-02-16T20:04:56.900Z,13.10
2019-02-16T20:07:42.846Z,14.33
2019-02-16T20:10:26.534Z,11.10
2019-02-16T20:13:16.270Z,13.60
2019-02-16T20:15:50.557Z,14.97
2019-02-16T20:18:39.898Z,14.23
2019-02-16T20:21:27.390Z,20.30
2019-02-16T20:24:23.097Z,13.80
2019-02-16T20:27:00.389Z,16.73
2019-02-16T20:29:38.499Z,20.77
2019-02-16T20:32:40.431Z,19.03
2019-02-16T20:35:24.208Z,13.57
2019-02-16T20:38:15.938Z,15.87
2019-02-16T20:40:59.628Z,18.77
2019-02-16T20:43:48.590Z,16.87
2019-02-16T20:46:25.272Z,15.67
2019-02-16T20:49:19.762Z,17.13
2019-02-16T20:51:56.575Z,16.60
2019-02-16T20:54:52.207Z,16.57
2019-02-16T20:57:48.096Z,15.17
2019-02-16T21:00:26.294Z,20.97
2019-02-16T21:03:14.084Z,19.25
2019-02-16T21:05:59.422Z,19.60
2019-02-16T21:08:37.763Z,17.50
2019-02-16T21:11:25.058Z,14.97
2019-02-16T21:14:07.309Z,23.47
2019-02-16T21:16:57.812Z,15.63
2019-02-16T21:19:45.455Z,15.67
2019-02-16T21:22:39.920Z,20.47
2019-02-16T21:25:27.676Z,14.17
2019-02-16T21:28:32.256Z,17.48
2019-02-16T21:31:19.696Z,17.50
2019-02-16T21:34:01.589Z,14.73
2019-02-16T21:36:39.405Z,19.90
2019-02-16T21:39:28.451Z,16.47
2019-02-16T21:42:10.682Z,16.20
2019-02-16T21:45:04.858Z,15.63
2019-02-16T21:47:42.668Z,17.63
2019-02-16T21:50:30.164Z,16.53
2019-02-16T21:53:21.453Z,24.00
2019-02-16T21:56:07.941Z,18.00
2019-02-16T21:59:03.475Z,19.10
2019-02-16T22:01:52.317Z,19.97
2019-02-16T22:04:50.216Z,19.23
2019-02-16T22:07:42.206Z,16.90
2019-02-16T22:10:36.759Z,14.90
2019-02-16T22:13:05.546Z,18.33
2019-02-16T22:15:35.641Z,18.43
2019-02-16T22:18:05.457Z,17.03
2019-02-16T22:20:35.340Z,17.62
2019-02-16T22:23:05.365Z,18.67
2019-02-16T22:25:35.267Z,16.17
2019-02-16T22:28:04.877Z,20.30
2019-02-16T22:30:34.574Z,19.80
2019-02-16T22:33:04.626Z,20.17
2019-02-16T22:35:35.148Z,18.03
2019-02-16T22:38:05.376Z,16.97
2019-02-16T22:40:35.418Z,21.53
2019-02-16T22:43:05.080Z,21.23
2019-02-16T22:45:34.857Z,19.37
2019-02-16T22:48:04.488Z,18.57
2019-02-16T22:50:34.282Z,20.27
2019-02-16T22:53:03.920Z,19.07
2019-02-16T22:55:33.601Z,17.47
2019-02-16T22:58:05.652Z,22.03
2019-02-16T23:00:37.411Z,15.90
2019-02-16T23:03:08.744Z,19.90
2019-02-16T23:05:38.642Z,24.90
2019-02-16T23:08:08.645Z,24.97
2019-02-16T23:10:38.271Z,17.77
2019-02-16T23:13:08.547Z,20.67
2019-02-16T23:15:38.181Z,18.60
2019-02-16T23:18:07.900Z,25.50
2019-02-16T23:20:37.576Z,25.50
2019-02-16T23:23:07.263Z,18.17
2019-02-16T23:25:36.959Z,24.83
2019-02-16T23:28:06.669Z,19.60
2019-02-16T23:30:37.135Z,20.73
2019-02-16T23:33:07.043Z,20.53
2019-02-16T23:35:36.798Z,19.77
2019-02-16T23:38:06.558Z,21.27
2019-02-16T23:40:36.161Z,17.80
2019-02-16T23:43:05.807Z,20.80
2019-02-16T23:45:35.661Z,19.87
2019-02-16T23:48:05.522Z,22.13
2019-02-16T23:50:35.243Z,20.40
2019-02-16T23:53:05.054Z,22.10
2019-02-16T23:55:34.955Z,21.77
2019-02-16T23:58:04.557Z,24.30
